sensor_id;sensor_type;location;lat;lon;timestamp;pressure;altitude;pressure_sealevel;temperature;humidity
76321;BME280;65132;52.088;5.402;2022-12-01T00:01:03;102905.84;;;5.20;95.46
76321;BME280;65132;52.088;5.402;2022-12-01T00:03:30;102906.69;;;5.22;94.72
76321;BME280;65132;52.088;5.402;2022-12-01T00:06:01;102897.69;;;5.23;95.30
76321;BME280;65132;52.088;5.402;2022-12-01T00:08:28;102900.25;;;5.26;95.13
76321;BME280;65132;52.088;5.402;2022-12-01T00:10:55;102903.03;;;5.23;94.96
76321;BME280;65132;52.088;5.402;2022-12-01T00:13:21;102903.69;;;5.30;94.44
76321;BME280;65132;52.088;5.402;2022-12-01T00:15:47;102902.69;;;5.32;94.87
76321;BME280;65132;52.088;5.402;2022-12-01T00:18:14;102906.34;;;5.30;95.41
76321;BME280;65132;52.088;5.402;2022-12-01T00:20:40;102906.44;;;5.28;95.30
76321;BME280;65132;52.088;5.402;2022-12-01T00:23:07;102900.94;;;5.31;94.72
76321;BME280;65132;52.088;5.402;2022-12-01T00:25:33;102894.50;;;5.35;94.91
76321;BME280;65132;52.088;5.402;2022-12-01T00:27:59;102891.06;;;5.32;95.42
76321;BME280;65132;52.088;5.402;2022-12-01T00:30:26;102897.56;;;5.26;95.23
76321;BME280;65132;52.088;5.402;2022-12-01T00:32:52;102902.75;;;5.31;95.30
76321;BME280;65132;52.088;5.402;2022-12-01T00:35:18;102906.34;;;5.30;95.31
76321;BME280;65132;52.088;5.402;2022-12-01T00:37:45;102899.31;;;5.27;94.99
76321;BME280;65132;52.088;5.402;2022-12-01T00:40:12;102902.75;;;5.31;94.96
76321;BME280;65132;52.088;5.402;2022-12-01T00:42:38;102901.00;;;5.30;95.43
76321;BME280;65132;52.088;5.402;2022-12-01T00:45:05;102902.88;;;5.28;95.29
76321;BME280;65132;52.088;5.402;2022-12-01T00:47:32;102904.63;;;5.29;95.39
76321;BME280;65132;52.088;5.402;2022-12-01T00:49:58;102895.47;;;5.34;94.87
76321;BME280;65132;52.088;5.402;2022-12-01T00:52:24;102889.97;;;5.37;95.14
76321;BME280;65132;52.088;5.402;2022-12-01T00:54:51;102897.34;;;5.32;94.56
76321;BME280;65132;52.088;5.402;2022-12-01T00:57:17;102889.28;;;5.32;95.16
76321;BME280;65132;52.088;5.402;2022-12-01T00:59:44;102898.25;;;5.31;95.31
76321;BME280;65132;52.088;5.402;2022-12-01T01:02:10;102883.97;;;5.31;95.00
76321;BME280;65132;52.088;5.402;2022-12-01T01:04:36;102890.19;;;5.31;95.02
76321;BME280;65132;52.088;5.402;2022-12-01T01:07:03;102900.84;;;5.34;95.01
76321;BME280;65132;52.088;5.402;2022-12-01T01:09:30;102896.38;;;5.33;95.56
76321;BME280;65132;52.088;5.402;2022-12-01T01:11:57;102909.75;;;5.35;95.51
76321;BME280;65132;52.088;5.402;2022-12-01T01:14:23;102905.94;;;5.40;94.69
76321;BME280;65132;52.088;5.402;2022-12-01T01:16:50;102903.31;;;5.39;94.62
76321;BME280;65132;52.088;5.402;2022-12-01T01:19:16;102922.00;;;5.42;94.52
76321;BME280;65132;52.088;5.402;2022-12-01T01:21:42;102912.75;;;5.49;94.50
76321;BME280;65132;52.088;5.402;2022-12-01T01:24:09;102908.50;;;5.43;94.31
76321;BME280;65132;52.088;5.402;2022-12-01T01:26:36;102911.88;;;5.48;94.89
76321;BME280;65132;52.088;5.402;2022-12-01T01:29:04;102910.00;;;5.50;94.21
76321;BME280;65132;52.088;5.402;2022-12-01T01:31:31;102910.81;;;5.52;94.25
76321;BME280;65132;52.088;5.402;2022-12-01T01:33:58;102916.19;;;5.52;94.81
76321;BME280;65132;52.088;5.402;2022-12-01T01:36:25;102910.88;;;5.51;94.21
76321;BME280;65132;52.088;5.402;2022-12-01T01:38:52;102910.25;;;5.44;94.58
76321;BME280;65132;52.088;5.402;2022-12-01T01:41:19;102909.94;;;5.52;93.86
76321;BME280;65132;52.088;5.402;2022-12-01T01:43:57;102917.72;;;5.59;94.07
76321;BME280;65132;52.088;5.402;2022-12-01T01:46:26;102913.56;;;5.51;93.99
76321;BME280;65132;52.088;5.402;2022-12-01T01:48:59;102911.88;;;5.48;93.99
76321;BME280;65132;52.088;5.402;2022-12-01T01:51:40;102923.38;;;5.52;94.33
76321;BME280;65132;52.088;5.402;2022-12-01T01:54:13;102911.78;;;5.51;94.08
76321;BME280;65132;52.088;5.402;2022-12-01T01:56:43;102920.53;;;5.56;93.55
76321;BME280;65132;52.088;5.402;2022-12-01T01:59:12;102916.31;;;5.49;94.23
76321;BME280;65132;52.088;5.402;2022-12-01T02:01:40;102921.56;;;5.52;94.28
76321;BME280;65132;52.088;5.402;2022-12-01T02:04:07;102923.38;;;5.52;93.97
76321;BME280;65132;52.088;5.402;2022-12-01T02:06:33;102916.31;;;5.49;94.50
76321;BME280;65132;52.088;5.402;2022-12-01T02:09:00;102910.06;;;5.49;94.67
76321;BME280;65132;52.088;5.402;2022-12-01T02:11:57;102910.81;;;5.52;94.36
76321;BME280;65132;52.088;5.402;2022-12-01T02:17:44;102915.03;;;5.59;93.80
76321;BME280;65132;52.088;5.402;2022-12-01T02:23:20;102905.47;;;5.52;93.85
76321;BME280;65132;52.088;5.402;2022-12-01T02:31:22;102909.09;;;5.51;94.10
76321;BME280;65132;52.088;5.402;2022-12-01T02:34:00;102909.09;;;5.51;94.32
76321;BME280;65132;52.088;5.402;2022-12-01T02:36:36;102911.03;;;5.48;94.43
76321;BME280;65132;52.088;5.402;2022-12-01T02:39:09;102902.09;;;5.47;94.64
76321;BME280;65132;52.088;5.402;2022-12-01T02:41:58;102901.03;;;5.51;93.88
76321;BME280;65132;52.088;5.402;2022-12-01T02:44:38;102905.53;;;5.51;93.38
76321;BME280;65132;52.088;5.402;2022-12-01T02:47:10;102907.25;;;5.52;94.23
76321;BME280;65132;52.088;5.402;2022-12-01T02:49:44;102903.03;;;5.46;94.17
76321;BME280;65132;52.088;5.402;2022-12-01T02:52:14;102905.47;;;5.52;94.13
76321;BME280;65132;52.088;5.402;2022-12-01T02:54:43;102907.53;;;5.46;94.41
76321;BME280;65132;52.088;5.402;2022-12-01T02:57:11;102911.88;;;5.48;94.23
76321;BME280;65132;52.088;5.402;2022-12-01T02:59:39;102912.06;;;5.44;94.72
76321;BME280;65132;52.088;5.402;2022-12-01T03:02:12;102912.75;;;5.49;94.21
76321;BME280;65132;52.088;5.402;2022-12-01T03:10:55;102922.53;;;5.51;94.36
76321;BME280;65132;52.088;5.402;2022-12-01T03:18:39;102917.38;;;5.45;94.14
76321;BME280;65132;52.088;5.402;2022-12-01T03:21:35;102928.13;;;5.45;94.88
76321;BME280;65132;52.088;5.402;2022-12-01T03:24:11;102910.56;;;5.37;94.49
76321;BME280;65132;52.088;5.402;2022-12-01T03:26:41;102919.06;;;5.48;94.37
76321;BME280;65132;52.088;5.402;2022-12-01T03:29:12;102908.41;;;5.46;93.94
76321;BME280;65132;52.088;5.402;2022-12-01T03:31:56;102913.00;;;5.43;94.21
76321;BME280;65132;52.088;5.402;2022-12-01T03:34:38;102913.00;;;5.43;94.63
76321;BME280;65132;52.088;5.402;2022-12-01T03:37:11;102912.25;;;5.39;94.02
76321;BME280;65132;52.088;5.402;2022-12-01T03:39:41;102918.19;;;5.47;94.28
76321;BME280;65132;52.088;5.402;2022-12-01T03:42:34;102914.75;;;5.44;94.05
76321;BME280;65132;52.088;5.402;2022-12-01T03:45:15;102918.19;;;5.47;94.44
76321;BME280;65132;52.088;5.402;2022-12-01T03:47:44;102916.63;;;5.42;94.31
76321;BME280;65132;52.088;5.402;2022-12-01T03:50:11;102914.69;;;5.45;94.65
76321;BME280;65132;52.088;5.402;2022-12-01T03:53:13;102919.06;;;5.48;94.47
76321;BME280;65132;52.088;5.402;2022-12-01T03:55:35;102909.31;;;5.45;94.12
76321;BME280;65132;52.088;5.402;2022-12-01T03:58:13;102912.75;;;5.49;94.27
76321;BME280;65132;52.088;5.402;2022-12-01T04:00:42;102922.75;;;5.45;94.53
76321;BME280;65132;52.088;5.402;2022-12-01T04:03:19;102910.34;;;5.43;94.01
76321;BME280;65132;52.088;5.402;2022-12-01T04:05:48;102912.88;;;5.46;93.95
76321;BME280;65132;52.088;5.402;2022-12-01T04:08:14;102908.69;;;5.39;94.24
76321;BME280;65132;52.088;5.402;2022-12-01T04:10:41;102931.06;;;5.39;94.55
76321;BME280;65132;52.088;5.402;2022-12-01T04:13:07;102920.44;;;5.36;94.71
76321;BME280;65132;52.088;5.402;2022-12-01T04:15:34;102911.50;;;5.36;94.11
76321;BME280;65132;52.088;5.402;2022-12-01T04:18:00;102912.41;;;5.35;93.91
76321;BME280;65132;52.088;5.402;2022-12-01T04:20:26;102928.66;;;5.32;94.25
76321;BME280;65132;52.088;5.402;2022-12-01T04:22:53;102924.31;;;5.29;94.43
76321;BME280;65132;52.088;5.402;2022-12-01T04:25:19;102926.09;;;5.29;94.04
76321;BME280;65132;52.088;5.402;2022-12-01T04:27:46;102920.91;;;5.24;94.55
76321;BME280;65132;52.088;5.402;2022-12-01T04:30:12;102931.66;;;5.24;94.65
76321;BME280;65132;52.088;5.402;2022-12-01T04:32:41;102930.72;;;5.25;94.61
76321;BME280;65132;52.088;5.402;2022-12-01T04:35:09;102929.88;;;5.23;94.66
76321;BME280;65132;52.088;5.402;2022-12-01T04:37:36;102921.06;;;5.20;95.08
76321;BME280;65132;52.088;5.402;2022-12-01T04:40:03;102937.94;;;5.23;95.06
76321;BME280;65132;52.088;5.402;2022-12-01T04:42:30;102934.38;;;5.23;94.71
76321;BME280;65132;52.088;5.402;2022-12-01T04:44:56;102924.59;;;5.22;95.01
76321;BME280;65132;52.088;5.402;2022-12-01T04:47:23;102919.91;;;5.27;94.82
76321;BME280;65132;52.088;5.402;2022-12-01T04:49:49;102927.97;;;5.27;94.74
76321;BME280;65132;52.088;5.402;2022-12-01T04:52:16;102926.22;;;5.26;94.86
76321;BME280;65132;52.088;5.402;2022-12-01T04:54:42;102920.16;;;5.21;94.14
76321;BME280;65132;52.088;5.402;2022-12-01T04:57:09;102937.88;;;5.25;94.24
76321;BME280;65132;52.088;5.402;2022-12-01T04:59:35;102929.19;;;5.18;94.45
76321;BME280;65132;52.088;5.402;2022-12-01T05:02:02;102925.59;;;5.19;94.67
76321;BME280;65132;52.088;5.402;2022-12-01T05:04:31;102924.47;;;5.25;94.64
76321;BME280;65132;52.088;5.402;2022-12-01T05:06:57;102924.41;;;5.26;94.81
76321;BME280;65132;52.088;5.402;2022-12-01T05:09:23;102914.72;;;5.22;95.28
76321;BME280;65132;52.088;5.402;2022-12-01T05:11:50;102921.13;;;5.18;94.94
76321;BME280;65132;52.088;5.402;2022-12-01T05:14:16;102922.91;;;5.19;94.67
76321;BME280;65132;52.088;5.402;2022-12-01T05:16:44;102929.06;;;5.21;94.81
76321;BME280;65132;52.088;5.402;2022-12-01T05:19:10;102925.53;;;5.21;94.74
76321;BME280;65132;52.088;5.402;2022-12-01T05:21:37;102926.63;;;5.15;94.57
76321;BME280;65132;52.088;5.402;2022-12-01T05:24:04;102933.75;;;5.16;95.12
76321;BME280;65132;52.088;5.402;2022-12-01T05:26:31;102933.75;;;5.16;94.57
76321;BME280;65132;52.088;5.402;2022-12-01T05:28:57;102929.50;;;5.11;94.73
76321;BME280;65132;52.088;5.402;2022-12-01T05:31:24;102931.25;;;5.12;94.82
76321;BME280;65132;52.088;5.402;2022-12-01T05:33:50;102935.84;;;5.08;94.75
76321;BME280;65132;52.088;5.402;2022-12-01T05:36:17;102933.34;;;5.04;95.10
76321;BME280;65132;52.088;5.402;2022-12-01T05:38:43;102930.94;;;4.96;95.00
76321;BME280;65132;52.088;5.402;2022-12-01T05:41:10;102932.97;;;4.89;94.62
76321;BME280;65132;52.088;5.402;2022-12-01T05:43:36;102936.69;;;4.85;95.16
76321;BME280;65132;52.088;5.402;2022-12-01T05:46:03;102941.16;;;4.86;96.08
76321;BME280;65132;52.088;5.402;2022-12-01T05:48:30;102948.97;;;4.93;95.83
76321;BME280;65132;52.088;5.402;2022-12-01T05:50:57;102948.97;;;4.93;95.90
76321;BME280;65132;52.088;5.402;2022-12-01T05:53:23;102942.88;;;4.87;95.81
76321;BME280;65132;52.088;5.402;2022-12-01T05:55:51;102951.63;;;4.93;96.08
76321;BME280;65132;52.088;5.402;2022-12-01T05:58:18;102934.78;;;4.89;95.53
76321;BME280;65132;52.088;5.402;2022-12-01T06:00:45;102947.03;;;4.96;96.27
76321;BME280;65132;52.088;5.402;2022-12-01T06:03:12;102947.09;;;4.95;96.16
76321;BME280;65132;52.088;5.402;2022-12-01T06:05:39;102946.91;;;4.99;95.96
76321;BME280;65132;52.088;5.402;2022-12-01T06:08:06;102948.69;;;5.00;95.37
76321;BME280;65132;52.088;5.402;2022-12-01T06:10:33;102937.84;;;5.03;95.52
76321;BME280;65132;52.088;5.402;2022-12-01T06:12:59;102937.06;;;5.00;95.27
76321;BME280;65132;52.088;5.402;2022-12-01T06:15:25;102934.72;;;4.90;95.25
76321;BME280;65132;52.088;5.402;2022-12-01T06:17:52;102938.53;;;4.85;95.27
76321;BME280;65132;52.088;5.402;2022-12-01T06:20:19;102934.44;;;4.75;94.96
76321;BME280;65132;52.088;5.402;2022-12-01T06:22:46;102925.72;;;4.68;95.45
76321;BME280;65132;52.088;5.402;2022-12-01T06:25:12;102929.00;;;4.52;95.02
76321;BME280;65132;52.088;5.402;2022-12-01T06:27:39;102940.16;;;4.40;94.73
76321;BME280;65132;52.088;5.402;2022-12-01T06:30:06;102942.56;;;4.23;95.06
76321;BME280;65132;52.088;5.402;2022-12-01T06:32:33;102940.28;;;4.11;94.55
76321;BME280;65132;52.088;5.402;2022-12-01T06:35:00;102944.31;;;3.98;95.65
76321;BME280;65132;52.088;5.402;2022-12-01T06:37:27;102933.91;;;3.89;95.66
76321;BME280;65132;52.088;5.402;2022-12-01T06:39:53;102943.59;;;3.93;95.38
76321;BME280;65132;52.088;5.402;2022-12-01T06:42:20;102941.16;;;3.85;96.00
76321;BME280;65132;52.088;5.402;2022-12-01T06:44:46;102953.00;;;3.78;95.89
76321;BME280;65132;52.088;5.402;2022-12-01T06:47:13;102956.81;;;3.71;96.12
76321;BME280;65132;52.088;5.402;2022-12-01T06:49:39;102961.34;;;3.69;96.43
76321;BME280;65132;52.088;5.402;2022-12-01T06:52:06;102950.63;;;3.69;96.12
76321;BME280;65132;52.088;5.402;2022-12-01T06:54:32;102955.94;;;3.71;96.46
76321;BME280;65132;52.088;5.402;2022-12-01T06:56:59;102957.94;;;3.64;96.69
76321;BME280;65132;52.088;5.402;2022-12-01T06:59:26;102965.06;;;3.63;95.83
76321;BME280;65132;52.088;5.402;2022-12-01T07:01:52;102973.22;;;3.60;95.82
76321;BME280;65132;52.088;5.402;2022-12-01T07:04:19;102977.88;;;3.54;96.28
76321;BME280;65132;52.088;5.402;2022-12-01T07:06:45;102973.69;;;3.45;95.77
76321;BME280;65132;52.088;5.402;2022-12-01T07:09:12;102986.09;;;3.48;96.47
76321;BME280;65132;52.088;5.402;2022-12-01T07:11:38;102980.00;;;3.43;96.14
76321;BME280;65132;52.088;5.402;2022-12-01T07:14:05;102981.78;;;3.42;95.67
76321;BME280;65132;52.088;5.402;2022-12-01T07:16:31;102984.63;;;3.38;96.15
76321;BME280;65132;52.088;5.402;2022-12-01T07:18:58;102975.06;;;3.29;95.58
76321;BME280;65132;52.088;5.402;2022-12-01T07:21:24;102980.41;;;3.29;95.78
76321;BME280;65132;52.088;5.402;2022-12-01T07:23:50;102994.16;;;3.17;96.24
76321;BME280;65132;52.088;5.402;2022-12-01T07:26:17;102991.97;;;3.01;94.93
76321;BME280;65132;52.088;5.402;2022-12-01T07:28:46;103000.09;;;2.96;94.75
76321;BME280;65132;52.088;5.402;2022-12-01T07:31:15;103001.91;;;2.96;96.28
76321;BME280;65132;52.088;5.402;2022-12-01T07:33:42;103002.00;;;2.93;96.42
76321;BME280;65132;52.088;5.402;2022-12-01T07:36:09;103002.91;;;2.92;96.28
76321;BME280;65132;52.088;5.402;2022-12-01T07:38:38;103016.47;;;2.86;96.18
76321;BME280;65132;52.088;5.402;2022-12-01T07:41:10;103016.50;;;2.84;95.56
76321;BME280;65132;52.088;5.402;2022-12-01T07:43:37;103010.38;;;2.81;95.69
76321;BME280;65132;52.088;5.402;2022-12-01T07:48:41;103016.44;;;2.87;96.19
76321;BME280;65132;52.088;5.402;2022-12-01T07:51:09;103017.97;;;2.96;96.85
76321;BME280;65132;52.088;5.402;2022-12-01T07:53:36;103026.78;;;2.99;96.28
76321;BME280;65132;52.088;5.402;2022-12-01T07:56:03;103016.19;;;2.95;96.01
76321;BME280;65132;52.088;5.402;2022-12-01T07:58:34;103021.28;;;3.04;96.76
76321;BME280;65132;52.088;5.402;2022-12-01T08:01:10;103026.50;;;3.10;96.21
76321;BME280;65132;52.088;5.402;2022-12-01T08:03:37;103028.91;;;3.17;96.75
76321;BME280;65132;52.088;5.402;2022-12-01T08:06:05;103031.44;;;3.23;96.47
76321;BME280;65132;52.088;5.402;2022-12-01T08:08:34;103032.13;;;3.30;97.05
76321;BME280;65132;52.088;5.402;2022-12-01T08:11:03;103028.38;;;3.35;97.36
76321;BME280;65132;52.088;5.402;2022-12-01T08:13:30;103027.00;;;3.51;97.25
76321;BME280;65132;52.088;5.402;2022-12-01T08:15:57;103031.16;;;3.61;97.30
76321;BME280;65132;52.088;5.402;2022-12-01T08:18:23;103026.44;;;3.69;97.01
76321;BME280;65132;52.088;5.402;2022-12-01T08:20:50;103025.22;;;3.81;96.89
76321;BME280;65132;52.088;5.402;2022-12-01T08:23:16;103021.44;;;3.87;96.85
76321;BME280;65132;52.088;5.402;2022-12-01T08:25:43;103033.59;;;3.98;97.16
76321;BME280;65132;52.088;5.402;2022-12-01T08:28:10;103033.31;;;4.06;97.64
76321;BME280;65132;52.088;5.402;2022-12-01T08:30:37;103029.34;;;4.19;97.21
76321;BME280;65132;52.088;5.402;2022-12-01T08:33:03;103041.34;;;4.33;96.80
76321;BME280;65132;52.088;5.402;2022-12-01T08:35:29;103024.31;;;4.36;96.62
76321;BME280;65132;52.088;5.402;2022-12-01T08:37:56;103047.84;;;4.52;96.76
76321;BME280;65132;52.088;5.402;2022-12-01T08:40:22;103038.75;;;4.56;96.49
76321;BME280;65132;52.088;5.402;2022-12-01T08:42:50;103032.59;;;4.54;96.56
76321;BME280;65132;52.088;5.402;2022-12-01T08:45:18;103037.44;;;4.69;96.59
76321;BME280;65132;52.088;5.402;2022-12-01T08:47:44;103036.44;;;4.72;96.61
76321;BME280;65132;52.088;5.402;2022-12-01T08:50:10;103038.63;;;4.85;96.50
76321;BME280;65132;52.088;5.402;2022-12-01T08:52:37;103035.63;;;4.95;96.34
76321;BME280;65132;52.088;5.402;2022-12-01T08:55:04;103045.28;;;5.00;96.32
76321;BME280;65132;52.088;5.402;2022-12-01T08:57:31;103038.03;;;5.02;95.92
76321;BME280;65132;52.088;5.402;2022-12-01T08:59:57;103041.09;;;5.16;96.47
76321;BME280;65132;52.088;5.402;2022-12-01T09:02:24;103040.88;;;5.22;96.24
76321;BME280;65132;52.088;5.402;2022-12-01T09:04:51;103033.28;;;5.33;95.59
76321;BME280;65132;52.088;5.402;2022-12-01T09:07:18;103044.84;;;5.35;95.54
76321;BME280;65132;52.088;5.402;2022-12-01T09:09:51;103043.44;;;5.48;95.59
76321;BME280;65132;52.088;5.402;2022-12-01T09:12:18;103038.84;;;5.52;95.45
76321;BME280;65132;52.088;5.402;2022-12-01T09:14:44;103035.75;;;5.62;94.46
76321;BME280;65132;52.088;5.402;2022-12-01T09:17:11;103027.53;;;5.67;94.59
76321;BME280;65132;52.088;5.402;2022-12-01T09:19:37;103037.72;;;5.80;93.89
76321;BME280;65132;52.088;5.402;2022-12-01T09:22:04;103041.41;;;5.78;93.36
76321;BME280;65132;52.088;5.402;2022-12-01T09:24:32;103035.38;;;5.94;93.63
76321;BME280;65132;52.088;5.402;2022-12-01T09:26:59;103034.56;;;5.92;92.69
76321;BME280;65132;52.088;5.402;2022-12-01T09:29:25;103045.72;;;6.05;92.32
76321;BME280;65132;52.088;5.402;2022-12-01T09:31:57;103042.91;;;6.08;92.19
76321;BME280;65132;52.088;5.402;2022-12-01T09:34:25;103038.72;;;6.23;91.62
76321;BME280;65132;52.088;5.402;2022-12-01T09:36:55;103038.72;;;6.23;90.68
76321;BME280;65132;52.088;5.402;2022-12-01T09:39:22;103038.63;;;6.46;91.09
76321;BME280;65132;52.088;5.402;2022-12-01T09:41:58;103034.72;;;6.94;89.08
76321;BME280;65132;52.088;5.402;2022-12-01T09:44:54;103028.72;;;8.02;83.04
76321;BME280;65132;52.088;5.402;2022-12-01T09:47:28;103023.91;;;9.30;79.54
76321;BME280;65132;52.088;5.402;2022-12-01T09:50:25;103023.88;;;10.56;73.68
76321;BME280;65132;52.088;5.402;2022-12-01T09:53:02;103008.38;;;11.45;70.40
76321;BME280;65132;52.088;5.402;2022-12-01T09:55:32;103006.19;;;12.07;66.94
76321;BME280;65132;52.088;5.402;2022-12-01T09:58:01;103006.09;;;12.35;65.81
76321;BME280;65132;52.088;5.402;2022-12-01T10:00:34;102993.94;;;12.79;65.17
76321;BME280;65132;52.088;5.402;2022-12-01T10:05:47;102989.13;;;13.09;62.28
76321;BME280;65132;52.088;5.402;2022-12-01T10:08:40;102981.09;;;13.94;58.61
76321;BME280;65132;52.088;5.402;2022-12-01T10:11:19;102981.81;;;13.96;59.51
76321;BME280;65132;52.088;5.402;2022-12-01T10:13:51;102976.38;;;15.24;56.37
76321;BME280;65132;52.088;5.402;2022-12-01T10:16:25;102980.84;;;15.14;55.94
76321;BME280;65132;52.088;5.402;2022-12-01T10:19:16;102975.66;;;14.65;55.04
76321;BME280;65132;52.088;5.402;2022-12-01T10:22:21;102989.63;;;14.61;56.08
76321;BME280;65132;52.088;5.402;2022-12-01T10:25:44;102993.81;;;13.94;57.64
76321;BME280;65132;52.088;5.402;2022-12-01T10:30:50;103004.44;;;12.05;63.48
76321;BME280;65132;52.088;5.402;2022-12-01T10:33:25;103000.81;;;11.36;65.72
76321;BME280;65132;52.088;5.402;2022-12-01T10:35:52;103002.53;;;10.36;69.56
76321;BME280;65132;52.088;5.402;2022-12-01T10:38:33;103004.84;;;9.48;73.28
76321;BME280;65132;52.088;5.402;2022-12-01T10:41:01;103003.00;;;9.33;74.86
76321;BME280;65132;52.088;5.402;2022-12-01T10:43:42;103012.94;;;8.66;77.04
76321;BME280;65132;52.088;5.402;2022-12-01T10:46:42;103009.25;;;8.33;78.44
76321;BME280;65132;52.088;5.402;2022-12-01T10:49:11;103014.31;;;8.03;80.41
76321;BME280;65132;52.088;5.402;2022-12-01T10:52:05;103017.56;;;8.10;80.02
76321;BME280;65132;52.088;5.402;2022-12-01T10:54:37;103012.19;;;8.28;79.84
76321;BME280;65132;52.088;5.402;2022-12-01T10:57:06;103014.28;;;8.22;78.93
76321;BME280;65132;52.088;5.402;2022-12-01T10:59:50;103002.75;;;8.88;77.41
76321;BME280;65132;52.088;5.402;2022-12-01T11:02:22;103006.97;;;8.94;76.50
76321;BME280;65132;52.088;5.402;2022-12-01T11:07:32;103003.75;;;9.68;73.43
76321;BME280;65132;52.088;5.402;2022-12-01T11:12:52;102990.59;;;10.24;70.93
76321;BME280;65132;52.088;5.402;2022-12-01T11:15:32;102988.28;;;10.48;70.09
76321;BME280;65132;52.088;5.402;2022-12-01T11:18:02;102990.84;;;10.95;68.86
76321;BME280;65132;52.088;5.402;2022-12-01T11:20:30;102984.44;;;12.21;64.22
76321;BME280;65132;52.088;5.402;2022-12-01T11:26:02;102981.06;;;13.08;59.72
76321;BME280;65132;52.088;5.402;2022-12-01T11:28:30;102974.34;;;13.26;58.98
76321;BME280;65132;52.088;5.402;2022-12-01T11:31:15;102968.53;;;14.04;57.24
76321;BME280;65132;52.088;5.402;2022-12-01T11:33:51;102959.91;;;15.03;52.99
76321;BME280;65132;52.088;5.402;2022-12-01T11:36:19;102962.44;;;15.50;51.46
76321;BME280;65132;52.088;5.402;2022-12-01T11:38:46;102959.91;;;15.92;50.67
76321;BME280;65132;52.088;5.402;2022-12-01T11:41:27;102956.84;;;15.74;50.53
76321;BME280;65132;52.088;5.402;2022-12-01T11:43:55;102952.13;;;15.43;50.81
76321;BME280;65132;52.088;5.402;2022-12-01T11:46:37;102957.13;;;16.03;50.28
76321;BME280;65132;52.088;5.402;2022-12-01T11:49:24;102952.06;;;16.72;47.24
76321;BME280;65132;52.088;5.402;2022-12-01T11:51:53;102944.59;;;17.46;45.81
76321;BME280;65132;52.088;5.402;2022-12-01T11:54:24;102938.31;;;17.64;44.35
76321;BME280;65132;52.088;5.402;2022-12-01T11:56:52;102935.59;;;18.23;43.75
76321;BME280;65132;52.088;5.402;2022-12-01T11:59:39;102938.53;;;17.22;45.10
76321;BME280;65132;52.088;5.402;2022-12-01T12:02:43;102931.94;;;17.24;46.47
76321;BME280;65132;52.088;5.402;2022-12-01T12:08:11;102919.59;;;17.60;45.19
76321;BME280;65132;52.088;5.402;2022-12-01T12:21:36;102921.84;;;18.04;43.32
76321;BME280;65132;52.088;5.402;2022-12-01T12:27:07;102914.78;;;16.92;43.59
76321;BME280;65132;52.088;5.402;2022-12-01T12:38:21;102912.91;;;18.78;41.16
76321;BME280;65132;52.088;5.402;2022-12-01T12:43:54;102908.84;;;18.92;41.26
76321;BME280;65132;52.088;5.402;2022-12-01T12:49:24;102901.63;;;17.16;43.47
76321;BME280;65132;52.088;5.402;2022-12-01T12:52:06;102907.50;;;16.29;45.42
76321;BME280;65132;52.088;5.402;2022-12-01T12:54:52;102916.63;;;15.21;48.84
76321;BME280;65132;52.088;5.402;2022-12-01T13:00:06;102909.22;;;13.84;53.92
76321;BME280;65132;52.088;5.402;2022-12-01T13:02:40;102902.25;;;14.51;51.96
76321;BME280;65132;52.088;5.402;2022-12-01T13:05:17;102898.88;;;14.93;50.18
76321;BME280;65132;52.088;5.402;2022-12-01T13:07:50;102883.88;;;15.76;48.51
76321;BME280;65132;52.088;5.402;2022-12-01T13:15:45;102887.09;;;15.70;47.05
76321;BME280;65132;52.088;5.402;2022-12-01T13:18:24;102898.97;;;15.80;47.11
76321;BME280;65132;52.088;5.402;2022-12-01T13:20:53;102897.03;;;16.66;44.63
76321;BME280;65132;52.088;5.402;2022-12-01T13:23:21;102877.50;;;17.31;43.24
76321;BME280;65132;52.088;5.402;2022-12-01T13:25:52;102883.34;;;17.96;42.39
76321;BME280;65132;52.088;5.402;2022-12-01T13:28:20;102888.22;;;17.13;43.39
76321;BME280;65132;52.088;5.402;2022-12-01T13:31:05;102882.59;;;16.43;45.14
76321;BME280;65132;52.088;5.402;2022-12-01T13:33:32;102873.75;;;17.32;43.99
76321;BME280;65132;52.088;5.402;2022-12-01T13:36:00;102873.28;;;16.87;44.23
76321;BME280;65132;52.088;5.402;2022-12-01T13:41:25;102873.38;;;16.24;46.10
76321;BME280;65132;52.088;5.402;2022-12-01T13:43:57;102883.38;;;14.94;49.81
76321;BME280;65132;52.088;5.402;2022-12-01T13:49:42;102873.56;;;13.40;53.56
76321;BME280;65132;52.088;5.402;2022-12-01T14:08:48;102885.31;;;9.12;69.60
76321;BME280;65132;52.088;5.402;2022-12-01T14:11:23;102892.19;;;9.02;70.74
76321;BME280;65132;52.088;5.402;2022-12-01T14:16:50;102881.13;;;8.74;71.45
76321;BME280;65132;52.088;5.402;2022-12-01T14:19:42;102874.75;;;8.60;72.57
76321;BME280;65132;52.088;5.402;2022-12-01T14:22:41;102873.94;;;8.58;72.22
76321;BME280;65132;52.088;5.402;2022-12-01T14:27:46;102873.34;;;8.35;73.56
76321;BME280;65132;52.088;5.402;2022-12-01T14:41:29;102883.84;;;8.06;75.53
76321;BME280;65132;52.088;5.402;2022-12-01T14:49:38;102886.59;;;7.87;75.48
76321;BME280;65132;52.088;5.402;2022-12-01T14:52:14;102892.84;;;7.71;75.56
76321;BME280;65132;52.088;5.402;2022-12-01T14:54:45;102895.91;;;7.63;76.16
76321;BME280;65132;52.088;5.402;2022-12-01T14:57:16;102892.56;;;7.58;76.82
76321;BME280;65132;52.088;5.402;2022-12-01T14:59:45;102884.00;;;7.50;77.51
76321;BME280;65132;52.088;5.402;2022-12-01T15:02:12;102879.84;;;7.43;77.20
76321;BME280;65132;52.088;5.402;2022-12-01T15:05:06;102883.94;;;7.33;77.72
76321;BME280;65132;52.088;5.402;2022-12-01T15:07:43;102890.88;;;7.20;77.36
76321;BME280;65132;52.088;5.402;2022-12-01T15:12:42;102896.22;;;7.01;78.54
76321;BME280;65132;52.088;5.402;2022-12-01T15:15:20;102894.16;;;6.88;78.48
76321;BME280;65132;52.088;5.402;2022-12-01T15:17:51;102886.44;;;6.80;78.88
76321;BME280;65132;52.088;5.402;2022-12-01T15:20:28;102887.91;;;6.69;79.90
76321;BME280;65132;52.088;5.402;2022-12-01T15:22:55;102879.41;;;6.58;80.11